createdAt,value
2022-09-25T00:00:04.686Z,1.95
2022-09-25T00:02:50.219Z,2.20
2022-09-25T00:05:37.360Z,1.90
2022-09-25T00:08:22.569Z,2.65
2022-09-25T00:11:11.374Z,2.05
2022-09-25T00:13:57.876Z,1.85
2022-09-25T00:16:43.225Z,1.88
2022-09-25T00:19:47.322Z,1.70
2022-09-25T00:22:32.761Z,2.15
2022-09-25T00:25:18.798Z,1.83
2022-09-25T00:28:08.993Z,2.42
2022-09-25T00:30:54.845Z,1.85
2022-09-25T00:33:40.408Z,2.83
2022-09-25T00:36:27.079Z,2.10
2022-09-25T00:39:12.206Z,2.25
2022-09-25T00:41:58.132Z,4.07
2022-09-25T00:44:58.366Z,2.13
2022-09-25T00:48:02.297Z,2.67
2022-09-25T00:50:53.786Z,1.67
2022-09-25T00:53:41.130Z,3.22
2022-09-25T00:56:29.849Z,2.35
2022-09-25T00:59:20.485Z,2.88
2022-09-25T01:02:07.609Z,1.98
2022-09-25T01:04:57.139Z,1.88
2022-09-25T01:07:46.433Z,2.00
2022-09-25T01:10:31.844Z,1.70
2022-09-25T01:13:17.979Z,2.13
2022-09-25T01:16:24.319Z,1.65
2022-09-25T01:19:42.443Z,2.60
2022-09-25T01:22:49.548Z,1.65
2022-09-25T01:26:05.525Z,3.05
2022-09-25T01:29:03.050Z,1.83
2022-09-25T01:31:57.072Z,2.10
2022-09-25T01:35:06.152Z,1.85
2022-09-25T01:38:02.902Z,2.40
2022-09-25T01:40:52.217Z,1.63
2022-09-25T01:43:53.337Z,2.25
2022-09-25T01:46:44.051Z,2.17
2022-09-25T01:49:35.443Z,1.90
2022-09-25T01:52:26.055Z,3.67
2022-09-25T01:55:27.939Z,3.20
2022-09-25T01:58:20.900Z,2.67
2022-09-25T02:01:22.321Z,2.00
2022-09-25T02:04:27.817Z,2.40
2022-09-25T02:07:21.163Z,2.40
2022-09-25T02:10:16.743Z,1.98
2022-09-25T02:13:12.876Z,2.70
2022-09-25T02:16:06.022Z,2.00
2022-09-25T02:22:22.383Z,3.30
2022-09-25T02:25:15.327Z,1.60
2022-09-25T02:28:01.381Z,2.10
2022-09-25T02:30:48.650Z,2.13
2022-09-25T02:33:35.259Z,2.55
2022-09-25T02:36:23.186Z,2.03
2022-09-25T02:39:09.296Z,2.47
2022-09-25T02:42:17.243Z,2.53
2022-09-25T02:45:19.871Z,1.70
2022-09-25T02:48:20.453Z,2.28
2022-09-25T02:51:11.668Z,2.35
2022-09-25T02:54:31.299Z,2.00
2022-09-25T02:57:35.130Z,2.53
2022-09-25T03:00:23.505Z,2.47
2022-09-25T03:03:14.069Z,2.55
2022-09-25T03:06:00.024Z,2.33
2022-09-25T03:08:49.358Z,2.47
2022-09-25T03:11:41.556Z,2.28
2022-09-25T03:14:27.743Z,2.90
2022-09-25T03:17:15.139Z,2.72
2022-09-25T03:20:00.497Z,2.50
2022-09-25T03:22:45.760Z,3.80
2022-09-25T03:25:30.918Z,2.30
2022-09-25T03:28:16.437Z,2.47
2022-09-25T03:31:08.430Z,3.83
2022-09-25T03:33:54.113Z,2.80
2022-09-25T03:36:39.987Z,2.42
2022-09-25T03:39:25.069Z,2.70
2022-09-25T03:42:10.641Z,2.72
2022-09-25T03:44:55.996Z,3.10
2022-09-25T03:47:41.550Z,2.60
2022-09-25T03:50:27.779Z,2.00
2022-09-25T03:53:12.878Z,2.58
2022-09-25T03:55:58.669Z,2.80
2022-09-25T03:58:44.688Z,3.35
2022-09-25T04:01:30.147Z,2.65
2022-09-25T04:04:16.008Z,3.10
2022-09-25T04:07:01.517Z,3.35
2022-09-25T04:09:46.952Z,2.75
2022-09-25T04:12:32.927Z,2.92
2022-09-25T04:15:18.659Z,2.55
2022-09-25T04:18:06.228Z,3.17
2022-09-25T04:20:52.006Z,2.97
2022-09-25T04:23:38.050Z,2.58
2022-09-25T04:26:23.864Z,2.90
2022-09-25T04:29:09.348Z,2.22
2022-09-25T04:32:13.175Z,3.38
2022-09-25T04:34:59.107Z,2.50
2022-09-25T04:37:44.722Z,2.88
2022-09-25T04:40:32.249Z,3.45
2022-09-25T04:43:18.431Z,2.95
2022-09-25T04:46:06.331Z,2.97
2022-09-25T04:48:51.736Z,2.40
2022-09-25T04:51:37.168Z,3.38
2022-09-25T04:54:23.073Z,3.13
2022-09-25T04:57:38.714Z,2.67
2022-09-25T05:00:26.438Z,2.65
2022-09-25T05:03:12.172Z,2.78
2022-09-25T05:05:59.772Z,2.78
2022-09-25T05:08:47.725Z,3.45
2022-09-25T05:11:33.298Z,3.33
2022-09-25T05:14:19.401Z,2.58
2022-09-25T05:17:06.401Z,2.90
2022-09-25T05:19:51.993Z,3.78
2022-09-25T05:22:38.148Z,2.72
2022-09-25T05:25:25.455Z,3.15
2022-09-25T05:28:11.329Z,2.85
2022-09-25T05:31:03.539Z,3.22
2022-09-25T05:33:49.822Z,3.13
2022-09-25T05:36:35.178Z,2.55
2022-09-25T05:39:20.880Z,2.47
2022-09-25T05:42:06.375Z,3.05
2022-09-25T05:44:51.968Z,3.28
2022-09-25T05:47:38.134Z,3.67
2022-09-25T05:50:23.513Z,3.10
2022-09-25T05:53:09.712Z,2.50
2022-09-25T05:55:58.333Z,2.88
2022-09-25T05:58:45.005Z,3.25
2022-09-25T06:01:30.742Z,3.58
2022-09-25T06:04:17.153Z,3.20
2022-09-25T06:07:02.758Z,3.58
2022-09-25T06:09:48.223Z,3.83
2022-09-25T06:12:33.742Z,3.70
2022-09-25T06:15:19.692Z,3.28
2022-09-25T06:18:06.612Z,2.85
2022-09-25T06:20:58.397Z,3.05
2022-09-25T06:23:45.354Z,2.60
2022-09-25T06:26:30.973Z,3.75
2022-09-25T06:29:16.724Z,3.25
2022-09-25T06:32:03.513Z,2.63
2022-09-25T06:34:49.326Z,3.22
2022-09-25T06:37:34.923Z,2.90
2022-09-25T06:40:20.673Z,3.08
2022-09-25T06:43:10.402Z,2.55
2022-09-25T06:45:59.267Z,3.03
2022-09-25T06:48:45.234Z,3.20
2022-09-25T06:51:35.091Z,3.42
2022-09-25T06:54:20.506Z,3.70
2022-09-25T06:57:06.034Z,3.83
2022-09-25T06:59:51.653Z,3.42
2022-09-25T07:02:55.773Z,2.65
2022-09-25T07:05:42.739Z,3.33
2022-09-25T07:08:28.710Z,3.22
2022-09-25T07:11:22.535Z,3.25
2022-09-25T07:14:10.082Z,2.65
2022-09-25T07:16:55.511Z,2.88
2022-09-25T07:19:41.043Z,2.35
2022-09-25T07:22:26.742Z,2.35
2022-09-25T07:25:12.790Z,2.20
2022-09-25T07:27:59.126Z,1.98
2022-09-25T07:30:44.893Z,1.95
2022-09-25T07:33:30.366Z,1.70
2022-09-25T07:36:17.764Z,1.77
2022-09-25T07:39:03.144Z,1.42
2022-09-25T07:41:48.945Z,1.98
2022-09-25T07:44:38.399Z,2.10
2022-09-25T07:47:24.552Z,2.05
2022-09-25T07:50:15.231Z,2.20
2022-09-25T07:53:01.253Z,1.92
2022-09-25T07:55:47.663Z,1.83
2022-09-25T07:58:33.408Z,1.67
2022-09-25T08:01:19.189Z,1.60
2022-09-25T08:04:06.185Z,1.95
2022-09-25T08:06:51.705Z,1.65
2022-09-25T08:09:37.478Z,1.90
2022-09-25T08:12:25.854Z,2.38
2022-09-25T08:15:13.756Z,1.70
2022-09-25T08:17:59.219Z,1.90
2022-09-25T08:20:44.854Z,1.48
2022-09-25T08:23:30.531Z,1.80
2022-09-25T08:26:17.243Z,2.05
2022-09-25T08:29:02.993Z,2.33
2022-09-25T08:31:48.800Z,1.70
2022-09-25T08:34:41.099Z,1.30
2022-09-25T08:37:27.173Z,1.60
2022-09-25T08:40:21.025Z,1.50
2022-09-25T08:43:08.230Z,1.45
2022-09-25T08:46:14.293Z,1.88
2022-09-25T08:49:02.654Z,1.27
2022-09-25T08:51:50.339Z,1.85
2022-09-25T08:54:36.574Z,2.22
2022-09-25T08:57:37.677Z,1.17
2022-09-25T09:00:24.650Z,1.45
2022-09-25T09:03:12.706Z,1.40
2022-09-25T09:06:06.056Z,1.02
2022-09-25T09:09:07.912Z,1.60
2022-09-25T09:11:58.833Z,1.88
2022-09-25T09:15:06.625Z,1.85
2022-09-25T09:17:53.837Z,1.42
2022-09-25T09:20:51.658Z,1.52
2022-09-25T09:24:11.599Z,1.75
2022-09-25T09:27:22.436Z,1.80
2022-09-25T09:30:07.789Z,1.50
2022-09-25T09:33:15.963Z,1.95
2022-09-25T09:36:20.066Z,1.10
2022-09-25T09:39:11.613Z,1.30
2022-09-25T09:42:01.986Z,1.27
2022-09-25T09:45:11.599Z,1.52
2022-09-25T09:48:23.090Z,1.20
2022-09-25T09:51:22.894Z,1.17
2022-09-25T09:54:17.905Z,1.15
2022-09-25T09:57:23.445Z,1.63
2022-09-25T10:00:21.360Z,1.05
2022-09-25T10:03:21.093Z,1.30
2022-09-25T10:06:13.317Z,1.25
2022-09-25T10:08:58.793Z,1.38
2022-09-25T10:11:46.986Z,1.30
2022-09-25T10:14:42.394Z,1.00
2022-09-25T10:17:29.681Z,1.42
2022-09-25T10:20:22.207Z,1.38
2022-09-25T10:23:18.069Z,0.60
2022-09-25T10:26:07.237Z,1.02
2022-09-25T10:28:54.585Z,1.00
2022-09-25T10:31:41.711Z,1.00
2022-09-25T10:34:29.739Z,1.30
2022-09-25T10:37:21.917Z,1.58
2022-09-25T10:40:24.431Z,0.98
2022-09-25T10:43:23.658Z,0.82
2022-09-25T10:46:46.624Z,1.00
2022-09-25T10:50:06.747Z,1.23
2022-09-25T10:53:00.086Z,0.95
2022-09-25T10:55:51.478Z,1.08
2022-09-25T10:58:40.006Z,1.10
2022-09-25T11:01:40.582Z,0.75
2022-09-25T11:04:30.033Z,0.95
2022-09-25T11:07:24.904Z,0.77
2022-09-25T11:10:20.590Z,0.70
2022-09-25T11:13:20.299Z,1.17
2022-09-25T11:16:10.850Z,1.10
2022-09-25T11:19:11.720Z,0.90
2022-09-25T11:22:19.409Z,1.23
2022-09-25T11:25:11.720Z,0.85
2022-09-25T11:28:08.460Z,1.63
2022-09-25T11:31:22.500Z,0.80
2022-09-25T11:34:40.322Z,1.00
2022-09-25T11:37:56.816Z,1.00
2022-09-25T11:41:12.455Z,1.00
2022-09-25T11:44:21.056Z,0.90
2022-09-25T11:47:25.176Z,1.02
2022-09-25T11:50:18.599Z,1.05
2022-09-25T11:53:04.031Z,1.10
2022-09-25T11:56:32.984Z,0.75
2022-09-25T11:59:31.997Z,0.60
2022-09-25T12:02:47.428Z,0.90
2022-09-25T12:06:15.872Z,1.30
2022-09-25T12:09:50.446Z,0.90
2022-09-25T12:12:53.254Z,0.90
2022-09-25T12:16:11.532Z,0.90
2022-09-25T12:18:56.775Z,0.90
2022-09-25T12:22:02.037Z,0.95
2022-09-25T12:25:04.449Z,0.77
2022-09-25T12:27:49.889Z,0.63
2022-09-25T12:31:05.259Z,0.93
2022-09-25T12:34:38.174Z,1.00
2022-09-25T12:37:38.333Z,0.77
2022-09-25T12:40:33.507Z,0.82
2022-09-25T12:43:54.686Z,0.60
2022-09-25T12:46:55.528Z,0.90
2022-09-25T12:50:02.672Z,0.80
2022-09-25T12:52:58.508Z,0.80
2022-09-25T12:55:48.341Z,1.15
2022-09-25T12:58:45.669Z,0.70
2022-09-25T13:01:52.724Z,0.90
2022-09-25T13:05:03.662Z,0.60
2022-09-25T13:08:20.302Z,0.77
2022-09-25T13:11:17.630Z,0.75
2022-09-25T13:14:06.121Z,0.60
2022-09-25T13:16:51.489Z,0.43
2022-09-25T13:19:37.084Z,0.77
2022-09-25T13:22:25.333Z,0.80
2022-09-25T13:25:16.201Z,0.95
2022-09-25T13:28:08.015Z,0.93
2022-09-25T13:31:06.743Z,0.80
2022-09-25T13:34:06.974Z,0.90
2022-09-25T13:36:55.986Z,1.60
2022-09-25T13:40:04.402Z,1.00
2022-09-25T13:42:49.809Z,0.82
2022-09-25T13:45:36.285Z,1.35
2022-09-25T13:48:30.991Z,0.70
2022-09-25T13:51:22.725Z,1.00
2022-09-25T13:54:08.432Z,0.90
2022-09-25T13:56:54.981Z,0.82
2022-09-25T13:59:40.292Z,0.90
2022-09-25T14:02:42.526Z,0.60
2022-09-25T14:05:36.150Z,0.88
2022-09-25T14:08:22.449Z,1.08
2022-09-25T14:11:12.334Z,0.73
2022-09-25T14:14:01.086Z,0.68
2022-09-25T14:16:50.691Z,1.00
2022-09-25T14:19:42.547Z,1.05
2022-09-25T14:22:33.016Z,1.10
2022-09-25T14:25:47.032Z,0.77
2022-09-25T14:28:43.216Z,1.05
2022-09-25T14:31:31.995Z,0.70
2022-09-25T14:35:01.349Z,0.85
2022-09-25T14:37:55.643Z,0.73
2022-09-25T14:40:50.879Z,1.15
2022-09-25T14:43:54.670Z,0.98
2022-09-25T14:46:41.053Z,0.88
2022-09-25T14:49:33.407Z,0.70
2022-09-25T14:52:28.230Z,0.90
2022-09-25T14:55:17.095Z,1.00
2022-09-25T14:58:05.157Z,0.75
2022-09-25T15:00:55.754Z,1.40
2022-09-25T15:03:47.170Z,1.17
2022-09-25T15:06:35.685Z,1.10
2022-09-25T15:09:47.061Z,1.02
2022-09-25T15:12:36.477Z,0.82
2022-09-25T15:15:22.238Z,1.02
2022-09-25T15:18:13.928Z,0.80
2022-09-25T15:21:01.466Z,1.67
2022-09-25T15:23:47.560Z,0.68
2022-09-25T15:26:39.154Z,1.02
2022-09-25T15:29:25.488Z,1.00
2022-09-25T15:32:28.426Z,1.13
2022-09-25T15:35:18.417Z,0.85
2022-09-25T15:38:11.944Z,0.52
2022-09-25T15:43:44.067Z,0.60
2022-09-25T15:46:46.606Z,0.50
2022-09-25T15:49:40.427Z,0.80
2022-09-25T15:52:32.488Z,0.70
2022-09-25T15:55:18.437Z,0.70
2022-09-25T15:58:08.312Z,0.73
2022-09-25T16:01:20.459Z,1.15
2022-09-25T16:04:27.667Z,0.73
2022-09-25T16:07:36.173Z,1.00
2022-09-25T16:10:21.348Z,0.63
2022-09-25T16:13:22.533Z,1.08
2022-09-25T16:16:22.669Z,1.15
2022-09-25T16:19:32.385Z,1.20
2022-09-25T16:22:23.336Z,0.70
2022-09-25T16:25:19.072Z,0.85
2022-09-25T16:28:19.533Z,0.90
2022-09-25T16:31:07.904Z,0.85
2022-09-25T16:33:57.354Z,0.80
2022-09-25T16:36:44.798Z,0.80
2022-09-25T16:39:33.126Z,0.85
2022-09-25T16:42:26.739Z,0.80
2022-09-25T16:45:34.238Z,1.10
2022-09-25T16:48:39.181Z,0.77
2022-09-25T16:51:30.078Z,0.75
2022-09-25T16:54:18.264Z,0.55
2022-09-25T16:57:04.556Z,0.93
2022-09-25T16:59:50.656Z,0.50
2022-09-25T17:02:41.967Z,0.60
2022-09-25T17:05:30.937Z,0.85
2022-09-25T17:08:21.545Z,0.65
2022-09-25T17:11:08.343Z,0.73
2022-09-25T17:13:53.736Z,0.95
2022-09-25T17:16:39.386Z,0.95
2022-09-25T17:19:27.011Z,0.85
2022-09-25T17:22:12.665Z,1.00
2022-09-25T17:25:02.890Z,1.00
2022-09-25T17:27:48.186Z,0.80
2022-09-25T17:30:34.536Z,1.15
2022-09-25T17:33:22.952Z,1.33
2022-09-25T17:36:11.668Z,1.52
2022-09-25T17:38:57.027Z,1.20
2022-09-25T17:41:43.044Z,0.95
2022-09-25T17:44:28.742Z,1.23
2022-09-25T17:47:14.472Z,0.80
2022-09-25T17:50:00.024Z,0.98
2022-09-25T17:52:45.710Z,1.13
2022-09-25T17:55:31.870Z,1.40
2022-09-25T17:58:17.822Z,1.65
2022-09-25T18:01:10.851Z,2.95
2022-09-25T18:03:58.948Z,4.28
2022-09-25T18:06:44.940Z,3.40
2022-09-25T18:09:30.322Z,3.10
2022-09-25T18:12:15.804Z,4.05
2022-09-25T18:15:01.434Z,3.25
2022-09-25T18:17:46.931Z,2.45
2022-09-25T18:20:50.896Z,2.00
2022-09-25T18:23:38.523Z,2.30
2022-09-25T18:26:30.490Z,2.20
2022-09-25T18:29:18.239Z,2.13
2022-09-25T18:32:05.639Z,2.40
2022-09-25T18:34:52.339Z,2.60
2022-09-25T18:37:37.697Z,2.70
2022-09-25T18:40:23.107Z,1.80
2022-09-25T18:43:09.691Z,2.30
2022-09-25T18:45:55.642Z,1.92
2022-09-25T18:48:45.909Z,1.88
2022-09-25T18:51:31.123Z,2.03
2022-09-25T18:54:17.190Z,1.92
2022-09-25T18:57:03.174Z,2.50
2022-09-25T18:59:48.531Z,3.08
2022-09-25T19:02:39.095Z,2.60
2022-09-25T19:05:25.894Z,2.35
2022-09-25T19:08:11.463Z,2.70
2022-09-25T19:10:58.711Z,2.40
2022-09-25T19:13:43.963Z,2.03
2022-09-25T19:16:33.128Z,2.45
2022-09-25T19:19:23.095Z,1.92
2022-09-25T19:22:15.266Z,1.67
2022-09-25T19:25:01.075Z,1.83
2022-09-25T19:27:47.814Z,2.05
2022-09-25T19:30:33.324Z,1.60
2022-09-25T19:33:19.957Z,1.60
2022-09-25T19:36:13.957Z,1.42
2022-09-25T19:38:59.984Z,1.80
2022-09-25T19:41:45.334Z,1.35
2022-09-25T19:44:33.260Z,1.85
2022-09-25T19:47:18.438Z,2.30
2022-09-25T19:50:08.727Z,2.70
2022-09-25T19:52:54.816Z,2.10
2022-09-25T19:55:43.525Z,2.28
2022-09-25T19:58:30.531Z,2.58
2022-09-25T20:01:23.076Z,2.10
2022-09-25T20:04:11.888Z,2.05
2022-09-25T20:06:59.894Z,1.80
2022-09-25T20:09:45.622Z,2.10
2022-09-25T20:12:30.949Z,1.80
2022-09-25T20:15:16.797Z,1.80
2022-09-25T20:18:03.015Z,1.63
2022-09-25T20:20:48.464Z,1.70
2022-09-25T20:23:35.072Z,1.65
2022-09-25T20:26:21.341Z,1.65
2022-09-25T20:29:12.933Z,1.90
2022-09-25T20:31:58.875Z,1.98
2022-09-25T20:34:44.434Z,1.50
2022-09-25T20:37:30.041Z,1.90
2022-09-25T20:40:15.945Z,1.17
2022-09-25T20:43:01.581Z,1.45
2022-09-25T20:45:56.620Z,1.55
2022-09-25T20:48:47.155Z,1.55
2022-09-25T20:51:35.334Z,1.55
2022-09-25T20:54:25.273Z,1.10
2022-09-25T20:57:11.339Z,1.70
2022-09-25T20:59:57.008Z,1.40
2022-09-25T21:02:42.669Z,1.35
2022-09-25T21:05:28.477Z,1.35
2022-09-25T21:08:14.515Z,1.45
2022-09-25T21:11:02.206Z,1.65
2022-09-25T21:13:52.456Z,1.58
2022-09-25T21:16:37.960Z,1.65
2022-09-25T21:19:23.599Z,3.10
2022-09-25T21:22:09.292Z,1.92
2022-09-25T21:24:54.882Z,1.98
2022-09-25T21:27:40.556Z,1.90
2022-09-25T21:30:25.929Z,1.95
2022-09-25T21:33:11.372Z,1.73
2022-09-25T21:35:56.892Z,2.05
2022-09-25T21:38:43.186Z,1.70
2022-09-25T21:41:30.541Z,2.08
2022-09-25T21:44:18.346Z,2.25
2022-09-25T21:47:04.017Z,1.45
2022-09-25T21:49:49.575Z,1.98
2022-09-25T21:52:34.725Z,1.67
2022-09-25T21:55:20.427Z,1.48
2022-09-25T21:58:05.715Z,1.65
2022-09-25T22:00:51.425Z,1.70
2022-09-25T22:03:39.814Z,1.58
2022-09-25T22:06:33.547Z,1.85
2022-09-25T22:09:24.216Z,1.98
2022-09-25T22:12:09.676Z,1.67
2022-09-25T22:14:55.314Z,2.00
2022-09-25T22:17:40.885Z,1.45
2022-09-25T22:20:26.405Z,1.83
2022-09-25T22:23:11.927Z,1.52
2022-09-25T22:26:01.192Z,1.52
2022-09-25T22:28:47.249Z,1.70
2022-09-25T22:31:35.018Z,1.67
2022-09-25T22:34:24.269Z,1.88
2022-09-25T22:37:09.552Z,1.40
2022-09-25T22:39:55.079Z,1.50
2022-09-25T22:42:40.592Z,2.05
2022-09-25T22:45:26.110Z,1.25
2022-09-25T22:48:11.589Z,1.83
2022-09-25T22:50:59.656Z,1.60
2022-09-25T22:53:45.616Z,2.70
2022-09-25T22:56:33.248Z,1.30
2022-09-25T22:59:18.625Z,1.15
2022-09-25T23:02:04.146Z,1.27
2022-09-25T23:04:52.113Z,1.63
2022-09-25T23:07:37.873Z,1.85
2022-09-25T23:10:23.167Z,0.95
2022-09-25T23:13:08.861Z,1.55
2022-09-25T23:15:54.116Z,1.60
2022-09-25T23:18:39.598Z,1.42
2022-09-25T23:21:25.898Z,1.35
2022-09-25T23:24:14.631Z,1.63
2022-09-25T23:27:00.006Z,1.20
2022-09-25T23:29:46.866Z,1.40
2022-09-25T23:32:32.306Z,1.40
2022-09-25T23:35:18.119Z,2.00
2022-09-25T23:38:04.350Z,1.40
2022-09-25T23:40:49.908Z,1.25
2022-09-25T23:43:35.438Z,1.30
2022-09-25T23:46:23.155Z,1.30
2022-09-25T23:49:10.129Z,1.70
2022-09-25T23:51:55.868Z,1.15
2022-09-25T23:54:41.148Z,1.45
2022-09-25T23:57:26.759Z,1.02
